Terminal Aerodrome Forecast
Issued by NWS Louisville, KY

Home | Current Version | Previous Version | Text Only | Print | Product List | Glossary On
Versions: 1 2 3 4 5 6 7 8 9 10 11 12 13 14
681
FTUS43 KLMK 041720
TAFSDF
TAF
KSDF 041720Z 0418/0524 30008KT P6SM BKN040
     FM041900 33007KT P6SM SCT035
     FM050100 30004KT P6SM SKC
     FM051400 19005KT P6SM SKC=

USA.gov is the U.S. government's official web portal to all federal, state and local government web resources and services.